sensor_id;sensor_type;location;lat;lon;timestamp;temperature;humidity
34989;DHT22;21192;40.182;44.516;2023-02-02T00:00:31;6.40;99.90
34989;DHT22;21192;40.182;44.516;2023-02-02T00:02:57;6.40;99.90
34989;DHT22;21192;40.182;44.516;2023-02-02T00:05:23;6.30;99.90
34989;DHT22;21192;40.182;44.516;2023-02-02T00:07:49;6.30;99.90
34989;DHT22;21192;40.182;44.516;2023-02-02T00:10:16;6.20;99.90
34989;DHT22;21192;40.182;44.516;2023-02-02T00:12:42;6.10;99.90
34989;DHT22;21192;40.182;44.516;2023-02-02T00:15:09;6.10;99.90
34989;DHT22;21192;40.182;44.516;2023-02-02T00:17:35;6.00;99.90
34989;DHT22;21192;40.182;44.516;2023-02-02T00:20:01;5.90;99.90
34989;DHT22;21192;40.182;44.516;2023-02-02T00:22:26;5.90;99.90
34989;DHT22;21192;40.182;44.516;2023-02-02T00:24:52;5.90;99.90
34989;DHT22;21192;40.182;44.516;2023-02-02T00:27:18;5.90;99.90
34989;DHT22;21192;40.182;44.516;2023-02-02T00:29:44;6.00;99.90
34989;DHT22;21192;40.182;44.516;2023-02-02T00:32:10;6.10;99.90
34989;DHT22;21192;40.182;44.516;2023-02-02T00:34:36;6.10;99.90
34989;DHT22;21192;40.182;44.516;2023-02-02T00:37:01;6.10;99.90
34989;DHT22;21192;40.182;44.516;2023-02-02T00:39:27;6.10;99.90
34989;DHT22;21192;40.182;44.516;2023-02-02T00:41:54;6.20;99.90
34989;DHT22;21192;40.182;44.516;2023-02-02T00:44:20;6.30;99.90
34989;DHT22;21192;40.182;44.516;2023-02-02T00:47:04;6.30;99.90
34989;DHT22;21192;40.182;44.516;2023-02-02T00:49:30;6.30;99.90
34989;DHT22;21192;40.182;44.516;2023-02-02T00:51:56;6.20;99.90
34989;DHT22;21192;40.182;44.516;2023-02-02T00:54:22;6.30;99.90
34989;DHT22;21192;40.182;44.516;2023-02-02T00:56:48;6.40;99.90
34989;DHT22;21192;40.182;44.516;2023-02-02T00:59:14;6.40;99.90
34989;DHT22;21192;40.182;44.516;2023-02-02T01:01:40;6.50;99.90
34989;DHT22;21192;40.182;44.516;2023-02-02T01:04:05;6.40;99.90
34989;DHT22;21192;40.182;44.516;2023-02-02T01:06:31;6.50;99.90
34989;DHT22;21192;40.182;44.516;2023-02-02T01:08:57;6.30;99.90
34989;DHT22;21192;40.182;44.516;2023-02-02T01:11:23;6.30;99.90
34989;DHT22;21192;40.182;44.516;2023-02-02T01:13:50;6.20;99.90
34989;DHT22;21192;40.182;44.516;2023-02-02T01:16:16;6.10;99.90
34989;DHT22;21192;40.182;44.516;2023-02-02T01:18:42;6.00;99.90
34989;DHT22;21192;40.182;44.516;2023-02-02T01:21:10;5.90;99.90
34989;DHT22;21192;40.182;44.516;2023-02-02T01:23:37;5.90;99.90
34989;DHT22;21192;40.182;44.516;2023-02-02T01:26:06;6.10;99.90
34989;DHT22;21192;40.182;44.516;2023-02-02T01:28:32;6.20;99.90
34989;DHT22;21192;40.182;44.516;2023-02-02T01:31:03;6.20;99.90
34989;DHT22;21192;40.182;44.516;2023-02-02T01:33:29;6.20;99.90
34989;DHT22;21192;40.182;44.516;2023-02-02T01:35:55;6.30;99.90
34989;DHT22;21192;40.182;44.516;2023-02-02T01:38:22;6.30;99.90
34989;DHT22;21192;40.182;44.516;2023-02-02T01:40:54;6.20;99.90
34989;DHT22;21192;40.182;44.516;2023-02-02T01:45:54;6.20;99.90
34989;DHT22;21192;40.182;44.516;2023-02-02T01:48:26;6.30;99.90
34989;DHT22;21192;40.182;44.516;2023-02-02T01:50:56;6.40;99.90
34989;DHT22;21192;40.182;44.516;2023-02-02T01:53:24;6.40;99.90
34989;DHT22;21192;40.182;44.516;2023-02-02T01:55:51;6.40;99.90
34989;DHT22;21192;40.182;44.516;2023-02-02T01:58:22;6.40;99.90
34989;DHT22;21192;40.182;44.516;2023-02-02T02:00:50;6.30;99.90
34989;DHT22;21192;40.182;44.516;2023-02-02T02:03:19;6.10;99.90
34989;DHT22;21192;40.182;44.516;2023-02-02T02:05:56;6.10;99.90
34989;DHT22;21192;40.182;44.516;2023-02-02T02:08:29;6.10;99.90
34989;DHT22;21192;40.182;44.516;2023-02-02T02:10:56;6.00;99.90
34989;DHT22;21192;40.182;44.516;2023-02-02T02:13:24;5.90;99.90
34989;DHT22;21192;40.182;44.516;2023-02-02T02:33:48;6.00;99.90
34989;DHT22;21192;40.182;44.516;2023-02-02T02:36:26;6.10;99.90
34989;DHT22;21192;40.182;44.516;2023-02-02T02:39:05;6.10;99.90
34989;DHT22;21192;40.182;44.516;2023-02-02T02:41:40;6.10;99.90
34989;DHT22;21192;40.182;44.516;2023-02-02T02:44:10;6.10;99.90
34989;DHT22;21192;40.182;44.516;2023-02-02T02:46:37;6.20;99.90
34989;DHT22;21192;40.182;44.516;2023-02-02T02:49:05;6.20;99.90
34989;DHT22;21192;40.182;44.516;2023-02-02T02:52:04;6.20;99.90
34989;DHT22;21192;40.182;44.516;2023-02-02T03:02:46;6.20;99.90
34989;DHT22;21192;40.182;44.516;2023-02-02T03:05:30;6.30;99.90
34989;DHT22;21192;40.182;44.516;2023-02-02T03:10:47;6.40;99.90
34989;DHT22;21192;40.182;44.516;2023-02-02T03:13:15;6.40;99.90
34989;DHT22;21192;40.182;44.516;2023-02-02T03:15:42;6.50;99.90
34989;DHT22;21192;40.182;44.516;2023-02-02T03:18:10;6.60;99.90
34989;DHT22;21192;40.182;44.516;2023-02-02T03:20:36;6.70;99.90
34989;DHT22;21192;40.182;44.516;2023-02-02T03:23:01;6.80;99.90
34989;DHT22;21192;40.182;44.516;2023-02-02T03:25:27;6.80;99.90
34989;DHT22;21192;40.182;44.516;2023-02-02T03:27:53;6.90;99.90
34989;DHT22;21192;40.182;44.516;2023-02-02T03:30:19;6.90;99.90
34989;DHT22;21192;40.182;44.516;2023-02-02T03:32:46;6.80;99.90
34989;DHT22;21192;40.182;44.516;2023-02-02T03:35:12;6.90;99.90
34989;DHT22;21192;40.182;44.516;2023-02-02T03:37:38;6.90;99.90
34989;DHT22;21192;40.182;44.516;2023-02-02T03:40:05;6.90;99.90
34989;DHT22;21192;40.182;44.516;2023-02-02T03:42:31;6.80;99.90
34989;DHT22;21192;40.182;44.516;2023-02-02T03:44:56;7.00;99.90
34989;DHT22;21192;40.182;44.516;2023-02-02T03:47:22;7.00;99.90
34989;DHT22;21192;40.182;44.516;2023-02-02T03:49:48;7.10;99.90
34989;DHT22;21192;40.182;44.516;2023-02-02T03:52:14;7.10;99.90
34989;DHT22;21192;40.182;44.516;2023-02-02T03:54:39;7.10;99.90
34989;DHT22;21192;40.182;44.516;2023-02-02T03:57:05;7.10;99.90
34989;DHT22;21192;40.182;44.516;2023-02-02T03:59:31;7.10;99.90
34989;DHT22;21192;40.182;44.516;2023-02-02T04:01:57;7.00;99.90
34989;DHT22;21192;40.182;44.516;2023-02-02T04:04:23;7.00;99.90
34989;DHT22;21192;40.182;44.516;2023-02-02T04:06:48;7.00;99.90
34989;DHT22;21192;40.182;44.516;2023-02-02T04:09:14;7.00;99.90
34989;DHT22;21192;40.182;44.516;2023-02-02T04:11:40;7.00;99.90
34989;DHT22;21192;40.182;44.516;2023-02-02T04:14:06;7.10;99.90
34989;DHT22;21192;40.182;44.516;2023-02-02T04:16:32;7.20;99.90
34989;DHT22;21192;40.182;44.516;2023-02-02T04:19:01;7.20;99.90
34989;DHT22;21192;40.182;44.516;2023-02-02T04:21:27;7.20;99.90
34989;DHT22;21192;40.182;44.516;2023-02-02T04:23:53;7.20;99.90
34989;DHT22;21192;40.182;44.516;2023-02-02T04:26:19;7.20;99.90
34989;DHT22;21192;40.182;44.516;2023-02-02T04:28:45;7.30;99.90
34989;DHT22;21192;40.182;44.516;2023-02-02T04:31:10;7.40;99.90
34989;DHT22;21192;40.182;44.516;2023-02-02T04:33:36;7.30;99.90
34989;DHT22;21192;40.182;44.516;2023-02-02T04:36:03;7.20;99.90
34989;DHT22;21192;40.182;44.516;2023-02-02T04:38:29;7.20;99.90
34989;DHT22;21192;40.182;44.516;2023-02-02T04:40:54;7.20;99.90
34989;DHT22;21192;40.182;44.516;2023-02-02T04:43:20;7.20;99.90
34989;DHT22;21192;40.182;44.516;2023-02-02T04:45:46;7.20;99.90
34989;DHT22;21192;40.182;44.516;2023-02-02T04:48:12;7.30;99.90
34989;DHT22;21192;40.182;44.516;2023-02-02T04:50:37;7.30;99.90
34989;DHT22;21192;40.182;44.516;2023-02-02T04:53:04;7.40;99.90
34989;DHT22;21192;40.182;44.516;2023-02-02T04:55:30;7.50;99.90
34989;DHT22;21192;40.182;44.516;2023-02-02T04:57:56;7.60;99.90
34989;DHT22;21192;40.182;44.516;2023-02-02T05:00:21;7.70;99.90
34989;DHT22;21192;40.182;44.516;2023-02-02T05:02:47;7.70;99.90
34989;DHT22;21192;40.182;44.516;2023-02-02T05:05:13;7.70;99.90
34989;DHT22;21192;40.182;44.516;2023-02-02T05:07:39;7.80;99.70
34989;DHT22;21192;40.182;44.516;2023-02-02T05:10:06;7.80;99.40
34989;DHT22;21192;40.182;44.516;2023-02-02T05:12:33;8.00;99.10
34989;DHT22;21192;40.182;44.516;2023-02-02T05:14:58;8.10;98.70
34989;DHT22;21192;40.182;44.516;2023-02-02T05:17:30;8.10;98.40
34989;DHT22;21192;40.182;44.516;2023-02-02T05:19:55;8.20;98.10
34989;DHT22;21192;40.182;44.516;2023-02-02T05:22:21;8.30;97.60
34989;DHT22;21192;40.182;44.516;2023-02-02T05:24:47;8.30;97.20
34989;DHT22;21192;40.182;44.516;2023-02-02T05:27:13;8.40;96.90
34989;DHT22;21192;40.182;44.516;2023-02-02T05:29:39;8.40;96.60
34989;DHT22;21192;40.182;44.516;2023-02-02T05:32:05;8.50;96.50
34989;DHT22;21192;40.182;44.516;2023-02-02T05:34:30;8.50;96.30
34989;DHT22;21192;40.182;44.516;2023-02-02T05:36:57;8.60;96.10
34989;DHT22;21192;40.182;44.516;2023-02-02T05:39:22;8.70;95.90
34989;DHT22;21192;40.182;44.516;2023-02-02T05:41:48;8.70;95.70
34989;DHT22;21192;40.182;44.516;2023-02-02T05:44:15;8.70;95.60
34989;DHT22;21192;40.182;44.516;2023-02-02T05:46:41;8.80;95.40
34989;DHT22;21192;40.182;44.516;2023-02-02T05:49:12;8.80;95.10
34989;DHT22;21192;40.182;44.516;2023-02-02T05:51:46;8.70;94.90
34989;DHT22;21192;40.182;44.516;2023-02-02T05:54:13;8.70;94.90
34989;DHT22;21192;40.182;44.516;2023-02-02T05:56:44;8.70;95.00
34989;DHT22;21192;40.182;44.516;2023-02-02T05:59:10;8.50;95.30
34989;DHT22;21192;40.182;44.516;2023-02-02T06:01:36;8.30;95.60
34989;DHT22;21192;40.182;44.516;2023-02-02T06:04:01;8.20;95.50
34989;DHT22;21192;40.182;44.516;2023-02-02T06:06:27;8.10;95.70
34989;DHT22;21192;40.182;44.516;2023-02-02T06:08:53;8.10;95.80
34989;DHT22;21192;40.182;44.516;2023-02-02T06:11:19;8.20;95.50
34989;DHT22;21192;40.182;44.516;2023-02-02T06:13:45;8.30;95.30
34989;DHT22;21192;40.182;44.516;2023-02-02T06:16:10;8.20;95.10
34989;DHT22;21192;40.182;44.516;2023-02-02T06:18:36;8.20;95.00
34989;DHT22;21192;40.182;44.516;2023-02-02T06:21:04;8.20;95.00
34989;DHT22;21192;40.182;44.516;2023-02-02T06:23:31;8.10;95.10
34989;DHT22;21192;40.182;44.516;2023-02-02T06:25:57;8.20;95.40
34989;DHT22;21192;40.182;44.516;2023-02-02T06:28:23;8.20;95.00
34989;DHT22;21192;40.182;44.516;2023-02-02T06:30:49;8.30;94.90
34989;DHT22;21192;40.182;44.516;2023-02-02T06:33:15;8.40;94.80
34989;DHT22;21192;40.182;44.516;2023-02-02T06:35:41;8.50;94.60
34989;DHT22;21192;40.182;44.516;2023-02-02T06:38:07;8.60;94.30
34989;DHT22;21192;40.182;44.516;2023-02-02T06:40:33;8.60;93.80
34989;DHT22;21192;40.182;44.516;2023-02-02T06:43:01;8.80;93.40
34989;DHT22;21192;40.182;44.516;2023-02-02T06:45:29;8.90;92.90
34989;DHT22;21192;40.182;44.516;2023-02-02T06:47:58;8.90;92.60
34989;DHT22;21192;40.182;44.516;2023-02-02T06:50:29;9.00;92.40
34989;DHT22;21192;40.182;44.516;2023-02-02T06:52:55;9.00;92.20
34989;DHT22;21192;40.182;44.516;2023-02-02T06:55:21;9.00;92.10
34989;DHT22;21192;40.182;44.516;2023-02-02T06:57:47;9.00;92.20
34989;DHT22;21192;40.182;44.516;2023-02-02T07:00:13;9.20;92.10
34989;DHT22;21192;40.182;44.516;2023-02-02T07:02:39;9.20;91.80
34989;DHT22;21192;40.182;44.516;2023-02-02T07:05:09;9.20;91.60
34989;DHT22;21192;40.182;44.516;2023-02-02T07:07:34;9.30;91.30
34989;DHT22;21192;40.182;44.516;2023-02-02T07:10:00;9.30;91.20
34989;DHT22;21192;40.182;44.516;2023-02-02T07:12:26;9.20;91.30
34989;DHT22;21192;40.182;44.516;2023-02-02T07:14:53;9.20;91.30
34989;DHT22;21192;40.182;44.516;2023-02-02T07:17:19;9.30;91.30
34989;DHT22;21192;40.182;44.516;2023-02-02T07:19:45;9.40;91.30
34989;DHT22;21192;40.182;44.516;2023-02-02T07:22:11;9.50;91.20
34989;DHT22;21192;40.182;44.516;2023-02-02T07:24:36;9.60;91.40
34989;DHT22;21192;40.182;44.516;2023-02-02T07:27:05;9.60;91.60
34989;DHT22;21192;40.182;44.516;2023-02-02T07:29:31;9.70;91.70
34989;DHT22;21192;40.182;44.516;2023-02-02T07:31:57;9.60;92.10
34989;DHT22;21192;40.182;44.516;2023-02-02T07:34:23;9.60;92.50
34989;DHT22;21192;40.182;44.516;2023-02-02T07:36:49;9.60;92.60
34989;DHT22;21192;40.182;44.516;2023-02-02T07:39:15;9.70;92.70
34989;DHT22;21192;40.182;44.516;2023-02-02T07:41:40;9.70;92.70
34989;DHT22;21192;40.182;44.516;2023-02-02T07:44:14;9.80;92.60
34989;DHT22;21192;40.182;44.516;2023-02-02T07:46:44;9.90;92.40
34989;DHT22;21192;40.182;44.516;2023-02-02T07:49:15;9.80;92.40
34989;DHT22;21192;40.182;44.516;2023-02-02T07:51:42;9.60;92.40
34989;DHT22;21192;40.182;44.516;2023-02-02T07:54:08;9.50;93.30
34989;DHT22;21192;40.182;44.516;2023-02-02T07:56:34;9.40;93.50
34989;DHT22;21192;40.182;44.516;2023-02-02T07:59:00;9.30;93.80
34989;DHT22;21192;40.182;44.516;2023-02-02T08:01:26;9.20;94.30
34989;DHT22;21192;40.182;44.516;2023-02-02T08:03:54;9.20;94.60
34989;DHT22;21192;40.182;44.516;2023-02-02T08:06:26;9.10;94.80
34989;DHT22;21192;40.182;44.516;2023-02-02T08:08:56;9.00;95.10
34989;DHT22;21192;40.182;44.516;2023-02-02T08:11:23;9.10;95.30
34989;DHT22;21192;40.182;44.516;2023-02-02T08:13:51;9.10;95.60
34989;DHT22;21192;40.182;44.516;2023-02-02T08:16:18;9.00;96.00
34989;DHT22;21192;40.182;44.516;2023-02-02T08:18:43;9.00;96.50
34989;DHT22;21192;40.182;44.516;2023-02-02T08:21:10;8.80;97.30
34989;DHT22;21192;40.182;44.516;2023-02-02T08:23:37;8.90;97.80
34989;DHT22;21192;40.182;44.516;2023-02-02T08:26:15;8.80;98.20
34989;DHT22;21192;40.182;44.516;2023-02-02T08:28:43;8.90;98.50
34989;DHT22;21192;40.182;44.516;2023-02-02T08:33:37;9.10;98.10
34989;DHT22;21192;40.182;44.516;2023-02-02T08:36:03;9.10;97.70
34989;DHT22;21192;40.182;44.516;2023-02-02T08:38:30;9.10;98.00
34989;DHT22;21192;40.182;44.516;2023-02-02T08:41:02;9.00;98.20
34989;DHT22;21192;40.182;44.516;2023-02-02T08:43:28;9.00;98.40
34989;DHT22;21192;40.182;44.516;2023-02-02T08:45:54;9.10;98.40
34989;DHT22;21192;40.182;44.516;2023-02-02T08:48:20;9.20;98.20
34989;DHT22;21192;40.182;44.516;2023-02-02T08:50:54;9.30;98.00
34989;DHT22;21192;40.182;44.516;2023-02-02T08:53:20;9.30;98.00
34989;DHT22;21192;40.182;44.516;2023-02-02T08:55:47;9.30;98.10
34989;DHT22;21192;40.182;44.516;2023-02-02T08:58:13;9.30;98.10
34989;DHT22;21192;40.182;44.516;2023-02-02T09:00:39;9.30;98.20
34989;DHT22;21192;40.182;44.516;2023-02-02T09:03:05;9.20;98.30
34989;DHT22;21192;40.182;44.516;2023-02-02T09:05:31;9.30;98.50
34989;DHT22;21192;40.182;44.516;2023-02-02T09:07:57;9.40;98.40
34989;DHT22;21192;40.182;44.516;2023-02-02T09:10:23;9.50;98.30
34989;DHT22;21192;40.182;44.516;2023-02-02T09:12:49;9.60;98.10
34989;DHT22;21192;40.182;44.516;2023-02-02T09:15:15;9.70;97.90
34989;DHT22;21192;40.182;44.516;2023-02-02T09:17:40;9.70;97.60
34989;DHT22;21192;40.182;44.516;2023-02-02T09:20:06;9.70;97.50
34989;DHT22;21192;40.182;44.516;2023-02-02T09:22:32;9.60;97.40
34989;DHT22;21192;40.182;44.516;2023-02-02T09:24:58;9.70;97.30
34989;DHT22;21192;40.182;44.516;2023-02-02T09:27:24;9.50;97.30
34989;DHT22;21192;40.182;44.516;2023-02-02T09:29:50;9.50;97.60
34989;DHT22;21192;40.182;44.516;2023-02-02T09:32:17;9.60;97.50
34989;DHT22;21192;40.182;44.516;2023-02-02T09:34:43;9.60;97.50
34989;DHT22;21192;40.182;44.516;2023-02-02T09:37:09;9.70;97.60
34989;DHT22;21192;40.182;44.516;2023-02-02T09:39:34;9.80;97.40
34989;DHT22;21192;40.182;44.516;2023-02-02T09:42:16;10.00;97.10
34989;DHT22;21192;40.182;44.516;2023-02-02T09:44:53;10.10;96.90
34989;DHT22;21192;40.182;44.516;2023-02-02T09:50:27;10.00;96.50
34989;DHT22;21192;40.182;44.516;2023-02-02T09:53:01;10.10;96.50
34989;DHT22;21192;40.182;44.516;2023-02-02T09:55:36;10.00;96.60
34989;DHT22;21192;40.182;44.516;2023-02-02T09:58:21;9.90;96.70
34989;DHT22;21192;40.182;44.516;2023-02-02T10:01:09;9.70;96.90
34989;DHT22;21192;40.182;44.516;2023-02-02T10:06:23;9.70;97.60
34989;DHT22;21192;40.182;44.516;2023-02-02T10:09:52;9.70;97.50
34989;DHT22;21192;40.182;44.516;2023-02-02T10:12:38;9.70;97.60
34989;DHT22;21192;40.182;44.516;2023-02-02T10:23:33;9.70;97.70
34989;DHT22;21192;40.182;44.516;2023-02-02T10:26:06;9.80;97.90
34989;DHT22;21192;40.182;44.516;2023-02-02T10:31:21;9.70;98.10
34989;DHT22;21192;40.182;44.516;2023-02-02T10:34:15;9.80;98.10
34989;DHT22;21192;40.182;44.516;2023-02-02T10:37:11;9.80;98.20
34989;DHT22;21192;40.182;44.516;2023-02-02T10:45:39;9.80;98.90
34989;DHT22;21192;40.182;44.516;2023-02-02T10:48:21;9.90;98.70
34989;DHT22;21192;40.182;44.516;2023-02-02T10:50:50;9.80;98.80
34989;DHT22;21192;40.182;44.516;2023-02-02T10:53:18;9.80;99.00
34989;DHT22;21192;40.182;44.516;2023-02-02T10:55:48;9.80;99.00
34989;DHT22;21192;40.182;44.516;2023-02-02T10:58:28;9.70;99.10
34989;DHT22;21192;40.182;44.516;2023-02-02T11:00:56;9.60;99.40
34989;DHT22;21192;40.182;44.516;2023-02-02T11:03:32;9.70;99.50
34989;DHT22;21192;40.182;44.516;2023-02-02T11:06:01;9.70;99.50
34989;DHT22;21192;40.182;44.516;2023-02-02T11:08:50;9.70;99.50
34989;DHT22;21192;40.182;44.516;2023-02-02T11:11:41;9.70;99.50
34989;DHT22;21192;40.182;44.516;2023-02-02T11:14:14;9.60;99.70
34989;DHT22;21192;40.182;44.516;2023-02-02T11:16:42;9.60;99.70
34989;DHT22;21192;40.182;44.516;2023-02-02T11:22:03;9.60;99.70
34989;DHT22;21192;40.182;44.516;2023-02-02T11:24:44;9.60;99.70
34989;DHT22;21192;40.182;44.516;2023-02-02T11:27:20;9.60;99.70
34989;DHT22;21192;40.182;44.516;2023-02-02T11:29:50;9.60;99.90
34989;DHT22;21192;40.182;44.516;2023-02-02T11:37:27;9.10;99.90
34989;DHT22;21192;40.182;44.516;2023-02-02T11:39:53;9.00;99.90
34989;DHT22;21192;40.182;44.516;2023-02-02T11:42:21;9.00;99.90
34989;DHT22;21192;40.182;44.516;2023-02-02T11:44:50;8.90;99.90
34989;DHT22;21192;40.182;44.516;2023-02-02T11:47:24;8.80;99.90
34989;DHT22;21192;40.182;44.516;2023-02-02T11:49:51;8.80;99.90
34989;DHT22;21192;40.182;44.516;2023-02-02T11:52:21;8.70;99.90
34989;DHT22;21192;40.182;44.516;2023-02-02T11:55:07;8.70;99.90
34989;DHT22;21192;40.182;44.516;2023-02-02T11:57:38;8.70;99.90
34989;DHT22;21192;40.182;44.516;2023-02-02T12:00:15;8.50;99.90
34989;DHT22;21192;40.182;44.516;2023-02-02T12:02:48;8.20;99.90
34989;DHT22;21192;40.182;44.516;2023-02-02T12:07:47;7.40;99.90
34989;DHT22;21192;40.182;44.516;2023-02-02T12:10:17;7.30;99.90
34989;DHT22;21192;40.182;44.516;2023-02-02T12:24:40;7.10;99.90
34989;DHT22;21192;40.182;44.516;2023-02-02T12:43:43;7.30;99.90
34989;DHT22;21192;40.182;44.516;2023-02-02T12:46:20;7.40;99.90
34989;DHT22;21192;40.182;44.516;2023-02-02T12:49:26;7.40;99.90
34989;DHT22;21192;40.182;44.516;2023-02-02T12:54:42;7.40;99.90
34989;DHT22;21192;40.182;44.516;2023-02-02T13:00:03;7.30;99.90
34989;DHT22;21192;40.182;44.516;2023-02-02T13:02:51;7.10;99.90
34989;DHT22;21192;40.182;44.516;2023-02-02T13:08:13;6.80;99.90
34989;DHT22;21192;40.182;44.516;2023-02-02T13:10:46;6.70;99.90
34989;DHT22;21192;40.182;44.516;2023-02-02T13:13:19;6.70;99.90
34989;DHT22;21192;40.182;44.516;2023-02-02T13:15:51;6.80;99.90
34989;DHT22;21192;40.182;44.516;2023-02-02T13:18:30;6.80;99.90
34989;DHT22;21192;40.182;44.516;2023-02-02T13:21:01;6.80;99.90
34989;DHT22;21192;40.182;44.516;2023-02-02T13:26:05;6.80;99.90
34989;DHT22;21192;40.182;44.516;2023-02-02T13:28:41;6.90;99.90
34989;DHT22;21192;40.182;44.516;2023-02-02T13:31:27;7.00;99.90
34989;DHT22;21192;40.182;44.516;2023-02-02T13:36:38;7.10;99.90
34989;DHT22;21192;40.182;44.516;2023-02-02T13:39:32;7.10;99.90
34989;DHT22;21192;40.182;44.516;2023-02-02T13:42:00;7.00;99.90
34989;DHT22;21192;40.182;44.516;2023-02-02T13:44:37;7.10;99.90
34989;DHT22;21192;40.182;44.516;2023-02-02T13:47:19;7.30;99.90
34989;DHT22;21192;40.182;44.516;2023-02-02T13:49:55;7.40;99.90
34989;DHT22;21192;40.182;44.516;2023-02-02T14:00:40;7.50;99.90
34989;DHT22;21192;40.182;44.516;2023-02-02T14:06:12;7.70;99.90
34989;DHT22;21192;40.182;44.516;2023-02-02T14:13:54;7.80;99.90
34989;DHT22;21192;40.182;44.516;2023-02-02T14:19:15;7.80;99.90
34989;DHT22;21192;40.182;44.516;2023-02-02T14:26:59;7.70;99.90
34989;DHT22;21192;40.182;44.516;2023-02-02T14:48:18;6.80;99.90
34989;DHT22;21192;40.182;44.516;2023-02-02T14:51:03;6.70;99.90
34989;DHT22;21192;40.182;44.516;2023-02-02T14:53:37;6.60;99.90
34989;DHT22;21192;40.182;44.516;2023-02-02T14:56:10;6.60;99.90
34989;DHT22;21192;40.182;44.516;2023-02-02T14:58:44;6.60;99.90
34989;DHT22;21192;40.182;44.516;2023-02-02T15:06:44;6.60;99.90
34989;DHT22;21192;40.182;44.516;2023-02-02T15:14:31;7.00;99.90
34989;DHT22;21192;40.182;44.516;2023-02-02T15:17:19;7.10;99.90
34989;DHT22;21192;40.182;44.516;2023-02-02T15:25:05;7.20;99.90
34989;DHT22;21192;40.182;44.516;2023-02-02T15:27:37;7.10;99.90
34989;DHT22;21192;40.182;44.516;2023-02-02T15:30:07;7.00;99.90
34989;DHT22;21192;40.182;44.516;2023-02-02T15:32:35;6.90;99.90
34989;DHT22;21192;40.182;44.516;2023-02-02T15:35:04;6.90;99.90
34989;DHT22;21192;40.182;44.516;2023-02-02T15:37:35;6.90;99.90
34989;DHT22;21192;40.182;44.516;2023-02-02T15:40:27;7.10;99.90
34989;DHT22;21192;40.182;44.516;2023-02-02T15:43:00;7.20;99.90
34989;DHT22;21192;40.182;44.516;2023-02-02T15:45:30;7.30;99.90
34989;DHT22;21192;40.182;44.516;2023-02-02T15:47:58;7.30;99.90
34989;DHT22;21192;40.182;44.516;2023-02-02T15:50:24;7.00;99.90
34989;DHT22;21192;40.182;44.516;2023-02-02T15:52:52;6.60;99.90
34989;DHT22;21192;40.182;44.516;2023-02-02T15:55:23;6.30;99.90
34989;DHT22;21192;40.182;44.516;2023-02-02T15:57:49;6.20;99.90
34989;DHT22;21192;40.182;44.516;2023-02-02T16:00:28;6.00;99.90
34989;DHT22;21192;40.182;44.516;2023-02-02T16:03:17;6.00;99.90
34989;DHT22;21192;40.182;44.516;2023-02-02T16:05:53;6.20;99.90
34989;DHT22;21192;40.182;44.516;2023-02-02T16:08:28;6.40;99.90
34989;DHT22;21192;40.182;44.516;2023-02-02T16:11:10;6.40;99.90
34989;DHT22;21192;40.182;44.516;2023-02-02T16:13:37;6.40;99.90
34989;DHT22;21192;40.182;44.516;2023-02-02T16:16:29;6.50;99.90
34989;DHT22;21192;40.182;44.516;2023-02-02T16:19:05;6.70;99.90
34989;DHT22;21192;40.182;44.516;2023-02-02T16:22:08;6.80;99.90
34989;DHT22;21192;40.182;44.516;2023-02-02T16:24:38;7.00;99.90
34989;DHT22;21192;40.182;44.516;2023-02-02T16:27:09;7.10;99.90
34989;DHT22;21192;40.182;44.516;2023-02-02T16:29:39;7.10;99.90
34989;DHT22;21192;40.182;44.516;2023-02-02T16:32:05;7.30;99.90
34989;DHT22;21192;40.182;44.516;2023-02-02T16:37:30;7.60;99.90
34989;DHT22;21192;40.182;44.516;2023-02-02T16:40:27;7.70;99.90
34989;DHT22;21192;40.182;44.516;2023-02-02T16:43:16;7.70;99.90
34989;DHT22;21192;40.182;44.516;2023-02-02T16:45:53;7.70;99.90
34989;DHT22;21192;40.182;44.516;2023-02-02T16:53:34;7.80;99.90
34989;DHT22;21192;40.182;44.516;2023-02-02T16:56:01;7.80;99.90
34989;DHT22;21192;40.182;44.516;2023-02-02T16:58:28;7.90;99.90
34989;DHT22;21192;40.182;44.516;2023-02-02T17:01:04;7.80;99.90
34989;DHT22;21192;40.182;44.516;2023-02-02T17:03:34;7.50;99.90
34989;DHT22;21192;40.182;44.516;2023-02-02T17:06:01;7.50;99.90
34989;DHT22;21192;40.182;44.516;2023-02-02T17:08:34;7.60;99.90
34989;DHT22;21192;40.182;44.516;2023-02-02T17:11:24;7.40;99.90
34989;DHT22;21192;40.182;44.516;2023-02-02T17:13:51;7.50;99.90
34989;DHT22;21192;40.182;44.516;2023-02-02T17:16:20;7.70;99.90
34989;DHT22;21192;40.182;44.516;2023-02-02T17:18:46;7.70;99.90
34989;DHT22;21192;40.182;44.516;2023-02-02T17:21:15;7.70;99.90
34989;DHT22;21192;40.182;44.516;2023-02-02T17:23:43;7.50;99.90
34989;DHT22;21192;40.182;44.516;2023-02-02T17:26:10;7.60;99.90
34989;DHT22;21192;40.182;44.516;2023-02-02T17:28:38;7.50;99.90
34989;DHT22;21192;40.182;44.516;2023-02-02T17:31:07;7.50;99.90
34989;DHT22;21192;40.182;44.516;2023-02-02T17:33:34;7.40;99.90
34989;DHT22;21192;40.182;44.516;2023-02-02T17:36:01;7.30;99.90
34989;DHT22;21192;40.182;44.516;2023-02-02T17:38:27;7.20;99.90
34989;DHT22;21192;40.182;44.516;2023-02-02T17:40:54;7.20;99.90
34989;DHT22;21192;40.182;44.516;2023-02-02T17:43:21;7.20;99.90
34989;DHT22;21192;40.182;44.516;2023-02-02T17:45:47;7.20;99.90
34989;DHT22;21192;40.182;44.516;2023-02-02T17:48:14;7.20;99.90
34989;DHT22;21192;40.182;44.516;2023-02-02T17:50:40;7.30;99.90
34989;DHT22;21192;40.182;44.516;2023-02-02T17:53:14;7.30;99.90
34989;DHT22;21192;40.182;44.516;2023-02-02T17:55:41;7.40;99.90
34989;DHT22;21192;40.182;44.516;2023-02-02T17:58:09;7.40;99.90
34989;DHT22;21192;40.182;44.516;2023-02-02T18:00:38;7.50;99.90
34989;DHT22;21192;40.182;44.516;2023-02-02T18:03:37;7.40;99.90
34989;DHT22;21192;40.182;44.516;2023-02-02T18:06:04;7.40;99.90
34989;DHT22;21192;40.182;44.516;2023-02-02T18:08:30;7.50;99.90
34989;DHT22;21192;40.182;44.516;2023-02-02T18:10:57;7.50;99.90
34989;DHT22;21192;40.182;44.516;2023-02-02T18:13:24;7.50;99.90
34989;DHT22;21192;40.182;44.516;2023-02-02T18:15:50;7.60;99.90
34989;DHT22;21192;40.182;44.516;2023-02-02T18:18:17;7.70;99.90
34989;DHT22;21192;40.182;44.516;2023-02-02T18:20:44;7.80;99.90
34989;DHT22;21192;40.182;44.516;2023-02-02T18:23:10;7.50;99.90
34989;DHT22;21192;40.182;44.516;2023-02-02T18:25:37;7.40;99.90
34989;DHT22;21192;40.182;44.516;2023-02-02T18:28:04;7.20;99.90
34989;DHT22;21192;40.182;44.516;2023-02-02T18:30:30;7.10;99.90
34989;DHT22;21192;40.182;44.516;2023-02-02T18:32:57;7.20;99.90
34989;DHT22;21192;40.182;44.516;2023-02-02T18:35:23;7.20;99.90
34989;DHT22;21192;40.182;44.516;2023-02-02T18:37:50;7.10;99.90
34989;DHT22;21192;40.182;44.516;2023-02-02T18:40:16;7.00;99.90
34989;DHT22;21192;40.182;44.516;2023-02-02T18:42:43;6.90;99.90